KGYR/GYR METAR and TAF weather

Enter ICAO airport designator
Station Type Date Time Source
KGYR METAR 2020/12/06 01:47 UTC NOAA

KGYR 060147Z 23003KT 10SM SKC 14/M08 A3021


Station Type Date Time Source
KGYR Decoded METAR 2020/12/06 01:47 UTC NOAA

Goodyear Municipal, AZ, United States (KGYR) 33-25N 112-23W
Dec 05, 2020 - 08:47 PM EST / 2020.12.06 0147 UTC
Wind: from the SW (230 degrees) at 3 MPH (3 KT):0
Visibility: 10 mile(s):0
Sky conditions: clear
Temperature: 57 F (14 C)
Dew Point: 17 F (-8 C)
Relative Humidity: 20%
Pressure (altimeter): 30.21 in. Hg (1023 hPa)
ob: KGYR 060147Z 23003KT 10SM SKC 14/M08 A3021
cycle: 2

Station Type Date Time Source
KGYR TAF UTC NOAA

Error!

Example: see airport list